Bei Facebook empfehlenBei Twitter postenGoogle plusPinterest

Das Wetter im Erzgebirge am 24.08.2015

Wetter und Klima am 24.08.2015 Holzhau im Erzgebirge (630m ü.NN)
Letzte gemessene Temperatur und Uhrzeit der Messung23:45:00 Uhr19.20 °C
Temperatur (Maximum / Höchstwert) und Uhrzeit der Messung17:30:00 Uhr23.90 °C
Temperatur (Minimum / Tiefstwert) und Uhrzeit der Messung05:45:0013.20 °C
Errechneter Absolutwert der Temperaturschwankungen zwischen Tmin und Tmax des Tages10.70 K
Errechnete Tagesmitteltemperatur18.11667 °C
Gesamt - Niederschlag des Tages (in flüssiger Form)2.07 Liter / m²
Luftdruck (Maximum / Höchstwert) und Zeitpunkt der Messung09:00:00 Uhr1007.60 hPa
Luftdruck (Minimum / Tiefstwert) und Zeitpunkt der Messung23:30:00 Uhr1005.80 hPa
Errechneter Absolutwert der Luftdruckschwankungen des Tages1.80 hPa
Höchste gemessene Windgeschwindigkeit und Uhrzeit der Messung07:30:00 Uhr660.96 km/h
Errechnete Windhäufigkeit in Relation zu den Messwerten des Tages1.04167 %
Niedrigste Windkühle (Windchill) und Zeitpunkt der Messung07:30:00 Uhr7.80 °C
Taupunkt (Maximum / Höchstwert) und Uhrzeit der Messung13:15:00 Uhr17.20 °C
Taupunkt (Minimum / Tiefstwert) und Uhrzeit der Messung03:45:0011.20 °C
Anzahl der automatisch eingelesenen Messwerte 96

Detaillierte Wetter- und Klima- Messwerte für den 24.08.2015 in Holzhau im Erzgebirge (630m ü.NN)
ZeitTemperaturLuftdruckRel. LuftfeuchteWindWindrichtungWindchillTaupunktNiederschlag l/m²
23:45:0019.20 °C1005.90 hPa75.00 %14.70 °C2.07
23:30:0019.20 °C1005.80 hPa75.00 %14.70 °C2.07
23:15:0019.20 °C1005.90 hPa75.00 %14.70 °C2.07
23:00:0019.10 °C1005.80 hPa75.00 %14.60 °C2.07
22:45:0019.00 °C1005.80 hPa75.00 %14.50 °C2.07
22:30:0019.00 °C1005.90 hPa75.00 %14.50 °C2.07
22:15:0018.90 °C1005.90 hPa76.00 %14.60 °C2.07
22:00:0018.90 °C1005.90 hPa76.00 %14.60 °C2.07
21:45:0018.80 °C1005.80 hPa76.00 %14.50 °C2.07
21:30:0018.60 °C1005.90 hPa76.00 %14.30 °C2.07
21:15:0018.60 °C1006.00 hPa75.00 %14.10 °C2.07
21:00:0018.90 °C1006.10 hPa74.00 %14.20 °C2.07
20:45:0019.10 °C1006.00 hPa73.00 %14.10 °C2.07
20:30:0019.50 °C1006.20 hPa72.00 %14.30 °C2.07
20:15:0019.80 °C1006.30 hPa72.00 %14.60 °C2.07
20:00:0019.90 °C1006.20 hPa72.00 %14.70 °C2.07
19:45:0020.10 °C1006.40 hPa71.00 %14.70 °C2.07
19:30:0020.50 °C1006.40 hPa70.00 %14.80 °C2.07
19:15:0020.90 °C1006.70 hPa69.00 %15.00 °C2.07
19:00:0021.60 °C1006.60 hPa67.00 %15.20 °C2.07
18:45:0021.70 °C1006.40 hPa67.00 %15.30 °C2.07
18:30:0022.20 °C1006.70 hPa65.00 %15.30 °C2.07
18:15:0023.10 °C1006.40 hPa64.00 %15.90 °C2.07
18:00:0023.50 °C1006.80 hPa63.00 %16.10 °C2.07
17:45:0023.60 °C1006.80 hPa64.00 %16.40 °C2.07
17:30:0023.90 °C1006.90 hPa64.00 %16.70 °C2.07
17:15:0022.90 °C1006.90 hPa66.00 %16.20 °C2.07
17:00:0023.40 °C1006.90 hPa65.00 %16.40 °C2.07
16:45:0023.40 °C1006.80 hPa66.00 %16.70 °C2.07
16:30:0023.10 °C1007.00 hPa66.00 %16.40 °C2.07
16:15:0023.30 °C1007.00 hPa66.00 %16.60 °C2.07
16:00:0023.40 °C1006.90 hPa66.00 %16.70 °C2.07
15:45:0023.40 °C1007.10 hPa67.00 %16.90 °C2.07
15:30:0023.10 °C1007.20 hPa68.00 %16.90 °C2.07
15:15:0022.90 °C1007.40 hPa69.00 %16.90 °C2.07
15:00:0022.70 °C1007.30 hPa70.00 %16.90 °C2.07
14:45:0022.60 °C1007.30 hPa70.00 %16.90 °C2.07
14:30:0022.10 °C1007.20 hPa71.00 %16.60 °C2.07
14:15:0022.10 °C1007.30 hPa72.00 %16.80 °C2.07
14:00:0021.90 °C1007.30 hPa74.00 %17.10 °C2.07
13:45:0021.30 °C1007.50 hPa75.00 %16.70 °C2.07
13:30:0021.30 °C1007.50 hPa74.00 %16.50 °C2.07
13:15:0021.80 °C1007.30 hPa75.00 %17.20 °C2.07
13:00:0021.40 °C1007.40 hPa77.00 %17.20 °C2.07
12:45:0020.60 °C1007.20 hPa77.00 %16.40 °C2.07
12:30:0020.80 °C1007.50 hPa80.00 %17.20 °C2.07
12:15:0019.90 °C1007.30 hPa81.00 %16.50 °C2.07
12:00:0018.50 °C1007.50 hPa81.00 %15.20 °C2.07
11:45:0019.10 °C1007.50 hPa80.00 %15.60 °C2.07
11:30:0019.40 °C1007.50 hPa82.00 %16.20 °C2.07
11:15:0019.10 °C1007.50 hPa84.00 %16.30 °C2.07
11:00:0018.60 °C1007.30 hPa86.00 %16.20 °C2.07
10:45:0018.20 °C1007.10 hPa88.00 %16.20 °C2.07
10:30:0017.60 °C1007.30 hPa89.00 %15.80 °C2.07
10:15:0017.30 °C1007.20 hPa90.00 %15.60 °C2.07
10:00:0017.00 °C1007.10 hPa91.00 %15.50 °C2.07
09:45:0016.40 °C1007.20 hPa92.00 %15.10 °C2.07
09:30:0015.90 °C1007.20 hPa92.00 %14.60 °C2.07
09:15:0016.10 °C1007.30 hPa92.00 %14.80 °C2.07
09:00:0016.40 °C1007.60 hPa93.00 %15.30 °C2.07
08:45:0016.10 °C1007.30 hPa94.00 %15.10 °C2.07
08:30:0015.30 °C1007.20 hPa94.00 %14.30 °C2.07
08:15:0014.90 °C1007.10 hPa94.00 %13.90 °C2.07
08:00:0014.30 °C1007.00 hPa94.00 %13.30 °C2.07
07:45:0013.90 °C1006.80 hPa93.00 %12.80 °C2.07
07:30:0013.60 °C1007.00 hPa93.00 %660.96 km/hOSO7.80 °C12.50 °C2.07
07:15:0013.50 °C1007.00 hPa93.00 %12.40 °C2.07
07:00:0013.40 °C1007.20 hPa93.00 %12.30 °C2.07
06:45:0013.40 °C1007.10 hPa92.00 %12.10 °C2.07
06:30:0013.40 °C1007.20 hPa92.00 %12.10 °C1.55
06:15:0013.30 °C1007.20 hPa92.00 %12.00 °C1.55
06:00:0013.30 °C1007.20 hPa91.00 %11.90 °C1.55
05:45:0013.20 °C1007.00 hPa91.00 %11.80 °C1.55
05:30:0013.20 °C1007.30 hPa91.00 %11.80 °C1.55
05:15:0013.30 °C1007.20 hPa91.00 %11.90 °C1.55
05:00:0013.30 °C1007.20 hPa90.00 %11.70 °C1.55
04:45:0013.30 °C1007.10 hPa90.00 %11.70 °C1.55
04:30:0013.30 °C1007.00 hPa89.00 %11.50 °C1.03
04:15:0013.30 °C1007.00 hPa88.00 %11.40 °C1.03
04:00:0013.40 °C1007.00 hPa87.00 %11.30 °C1.03
03:45:0013.50 °C1007.00 hPa86.00 %11.20 °C1.03
03:30:0013.80 °C1007.20 hPa85.00 %11.30 °C0.51
03:15:0014.30 °C1007.20 hPa83.00 %11.50 °C 
03:00:0014.90 °C1007.50 hPa83.00 %12.00 °C 
02:45:0014.90 °C1007.10 hPa82.00 %11.90 °C 
02:30:0015.20 °C1006.90 hPa82.00 %12.10 °C 
02:15:0015.30 °C1007.00 hPa82.00 %12.20 °C 
02:00:0015.30 °C1007.00 hPa82.00 %12.20 °C 
01:45:0015.30 °C1006.80 hPa81.00 %12.10 °C 
01:30:0015.40 °C1006.90 hPa81.00 %12.20 °C 
01:15:0015.50 °C1007.00 hPa81.00 %12.30 °C 
01:00:0015.50 °C1007.20 hPa81.00 %12.30 °C 
00:45:0015.50 °C1007.20 hPa80.00 %12.10 °C 
00:30:0015.50 °C1007.30 hPa80.00 %12.10 °C 
00:15:0015.50 °C1007.50 hPa80.00 %12.10 °C 
00:00:0015.30 °C1007.50 hPa81.00 %12.10 °C 

Permanenter Link zu dieser Seite: Wetter im Erzgebirge am 24.08.2015
Performance-Info: Die Erstellung der Seite / Statistik(en) / Tabelle(n) erforderte 5 Datenbankserver-Abfrage(n) und dauerte 68 Millisekunden. (Dieser Messwert ist von der Gesamt-Auslastung des Servers abhängig.)
Erzgebirge - Wetter | Erzgebirge - Wetter (Mobilgeräte) | Komplette Klimadatenbank